Last 24 Hours

Pinyon

10 Minute Data | America/Los_Angeles
as of 5/10/26 4:24 PM PDT
Date & Time Temp (°F) Dew Pt (°F) RH (%) Wind Spd (mph) Wind Dir (°) Wind Gust (mph) Wind Gst Dir (°) Daily Max Temp (°F) Daily Min Temp (°F)
5/10/26 - 1620 86.0 23.2 10 9.5 S | 172 17.5 SSE | 148 87.6 73.3
5/10/26 - 1610 86.5 24.5 10 10.4 SSE | 157 20.5 SSE | 151 87.6 73.3
5/10/26 - 1600 86.4 22.9 10 7.0 S | 183 13.7 SE | 143 87.4 73.3
5/10/26 - 1550 85.8 22.3 10 10.4 SSE | 155 17.0 SSE | 167 87.1 73.3
5/10/26 - 1540 86.1 23.4 10 10.3 SSE | 167 18.0 SSE | 163 87.1 73.3
5/10/26 - 1530 86.3 23.9 10 9.4 S | 185 16.1 S | 177 87.1 73.3
5/10/26 - 1520 86.6 24.1 10 9.6 SSE | 168 17.7 S | 183 87.1 73.3
5/10/26 - 1510 86.5 24.8 11 11.7 SSE | 165 23.3 SE | 129 87.1 73.3
5/10/26 - 1500 86.0 25.4 11 10.7 SSE | 165 19.2 SE | 132 87.1 73.3
5/10/26 - 1450 86.5 26.3 11 9.2 SSE | 164 16.7 SSE | 149 87.1 73.3
5/10/26 - 1440 86.0 26.0 11 10.6 S | 169 19.6 S | 181 86.9 73.3
5/10/26 - 1430 85.4 26.7 12 11.0 SSE | 149 22.2 S | 172 86.9 73.3
5/10/26 - 1420 85.4 27.4 12 11.5 SSE | 153 17.8 S | 174 86.6 73.3
5/10/26 - 1410 85.6 28.2 12 10.7 SSE | 154 19.5 SE | 143 86.6 73.3
5/10/26 - 1400 84.8 28.3 13 10.1 SE | 141 15.8 SSE | 164 86.6 73.3
5/10/26 - 1350 85.1 29.5 13 12.5 SSE | 151 18.3 SSE | 163 86.6 73.3
5/10/26 - 1340 84.7 29.7 14 10.9 SE | 142 16.4 SE | 136 86.6 73.3
5/10/26 - 1330 84.5 29.6 14 11.6 S | 169 22.6 SSE | 148 86.6 73.3
5/10/26 - 1320 84.5 30.2 14 13.0 SSE | 151 19.7 SE | 145 86.6 73.3
5/10/26 - 1310 85.4 28.5 13 10.2 SSE | 164 18.1 S | 178 86.6 73.3
5/10/26 - 1300 84.8 27.9 13 12.2 SSE | 165 22.4 SSE | 155 86.6 73.3
5/10/26 - 1250 85.2 28.3 13 12.0 SSE | 158 21.3 SE | 145 86.6 73.3
5/10/26 - 1240 84.7 28.5 13 12.4 SSE | 147 21.8 SE | 132 85.7 73.3
5/10/26 - 1230 84.6 28.6 13 12.2 SSE | 157 20.6 SSE | 163 85.7 73.3
5/10/26 - 1220 84.4 29.5 14 11.8 SSE | 152 20.9 SE | 143 85.7 73.3
5/10/26 - 1210 84.8 29.7 14 11.5 SSE | 152 18.6 SE | 128 85.7 73.3
5/10/26 - 1200 84.0 30.4 14 10.6 SSE | 150 18.4 SSE | 148 85.0 73.3
5/10/26 - 1150 83.6 29.3 14 12.6 SE | 138 19.8 SE | 145 85.0 73.3
5/10/26 - 1140 83.6 28.8 14 10.9 SE | 142 17.3 SE | 129 84.9 73.3
5/10/26 - 1130 83.0 27.6 13 11.3 SE | 140 17.8 SE | 146 83.8 73.3
5/10/26 - 1120 82.6 27.3 13 10.8 SE | 139 16.8 SE | 137 83.8 73.3
5/10/26 - 1110 83.4 27.8 13 10.0 SE | 140 17.5 ESE | 109 83.8 73.3
5/10/26 - 1100 82.4 27.6 14 9.9 SSE | 150 14.2 SSE | 162 83.5 73.3
5/10/26 - 1050 82.4 26.6 13 10.5 SE | 131 15.3 SSE | 147 83.5 73.3
5/10/26 - 1040 82.3 26.5 13 9.9 SE | 137 16.6 SE | 136 83.5 73.3
5/10/26 - 1030 82.1 26.6 13 10.5 SE | 137 15.2 ESE | 120 82.8 73.3
5/10/26 - 1020 82.0 26.6 13 9.2 SE | 146 17.5 SE | 137 82.7 73.3
5/10/26 - 1010 81.7 25.8 13 10.0 SE | 140 15.1 SSE | 150 82.4 73.3
5/10/26 - 1000 81.3 25.3 13 9.4 SE | 143 15.1 SE | 134 82.4 73.3
5/10/26 - 0950 81.3 24.5 12 9.1 SSE | 148 16.2 SSE | 158 82.4 73.3
5/10/26 - 0940 81.5 23.4 12 7.9 SSE | 149 15.2 SE | 143 82.4 73.3
5/10/26 - 0930 81.8 21.2 11 8.0 SE | 140 12.6 SE | 145 82.1 73.3
5/10/26 - 0920 81.2 20.2 10 7.4 SSE | 148 12.2 SSE | 150 81.9 73.3
5/10/26 - 0910 81.3 19.2 10 7.3 SSE | 149 11.8 SSE | 150 81.9 73.3
5/10/26 - 0900 81.0 20.1 10 7.1 SSE | 149 10.2 SSE | 161 81.9 73.3
5/10/26 - 0850 81.2 20.1 10 6.5 SSE | 147 12.3 SE | 142 81.9 73.3
5/10/26 - 0840 81.3 19.4 10 5.9 SSE | 154 9.9 SE | 131 81.7 73.3
5/10/26 - 0830 81.1 18.7 10 4.5 S | 170 8.7 SSE | 148 81.7 73.3
5/10/26 - 0820 80.8 18.1 10 4.4 SSE | 158 7.5 SE | 128 81.2 73.3
5/10/26 - 0810 80.5 17.4 9 4.5 SSE | 167 7.0 S | 189 80.9 73.3
5/10/26 - 0800 80.4 17.7 10 4.2 SSE | 147 7.1 SSE | 155 80.9 73.3
5/10/26 - 0750 80.6 18.4 10 3.6 SSE | 163 7.1 SSE | 148 80.9 73.3
5/10/26 - 0740 80.4 19.0 10 2.5 SSW | 198 4.7 SSW | 193 80.6 73.3
5/10/26 - 0730 79.6 19.1 10 1.8 SW | 218 3.9 WSW | 237 80.1 73.3
5/10/26 - 0720 78.6 19.3 11 0.6 W | 262 1.8 WSW | 253 79.0 73.3
5/10/26 - 0710 78.1 18.8 11 0.7 WNW | 285 1.7 WNW | 288 78.4 73.3
5/10/26 - 0700 78.3 17.7 10 1.2 W | 267 2.1 W | 278 78.4 73.3
5/10/26 - 0650 77.4 17.1 10 1.3 W | 272 2.6 W | 260 77.9 73.3
5/10/26 - 0640 76.8 16.2 10 0.9 WNW | 292 1.5 WNW | 283 77.6 73.3
5/10/26 - 0630 76.6 16.3 10 1.1 WNW | 300 1.9 WNW | 291 77.6 73.3
5/10/26 - 0620 76.7 16.7 10 0.9 NW | 306 1.8 W | 274 77.6 73.3
5/10/26 - 0610 76.5 16.8 10 1.2 NW | 319 1.5 NNW | 327 77.6 73.3
5/10/26 - 0600 76.5 16.0 10 1.6 NW | 315 2.2 NW | 326 77.6 73.3
5/10/26 - 0550 76.9 16.3 10 1.8 NNW | 348 2.3 N | 0 77.6 73.3
5/10/26 - 0540 76.5 16.1 10 2.1 N | 350 2.6 N | 353 77.6 73.3
5/10/26 - 0530 75.3 15.6 10 1.9 NW | 316 2.5 NW | 321 77.6 73.3
5/10/26 - 0520 75.2 15.4 10 1.9 NW | 312 2.4 NW | 315 77.6 73.3
5/10/26 - 0510 75.2 15.6 10 2.5 NNW | 329 3.2 NNW | 335 77.6 73.3
5/10/26 - 0500 75.0 15.6 10 2.4 NNW | 335 3.1 NNW | 346 77.6 73.3
5/10/26 - 0450 75.3 15.7 10 3.2 N | 350 3.9 NNW | 348 77.6 73.3
5/10/26 - 0440 76.1 15.7 10 2.4 NNW | 347 2.8 N | 349 77.6 73.3
5/10/26 - 0430 75.9 15.9 10 2.4 NNW | 334 3.1 NNW | 328 77.6 73.3
5/10/26 - 0420 76.5 16.0 10 2.4 NNW | 343 2.7 NNW | 335 77.6 73.3
5/10/26 - 0410 76.2 15.6 10 2.1 NNW | 341 2.4 N | 354 77.6 73.3
5/10/26 - 0400 75.6 16.0 10 2.1 NW | 305 3.4 WNW | 294 77.6 73.3
5/10/26 - 0350 76.3 15.3 10 2.9 NW | 324 4.2 NW | 323 77.6 73.3
5/10/26 - 0340 76.4 14.3 9 1.0 NNW | 330 1.9 NNW | 329 77.6 73.3
5/10/26 - 0330 76.1 14.0 9 1.3 NW | 314 2.0 WNW | 290 77.6 73.3
5/10/26 - 0320 75.6 13.5 9 1.0 WNW | 301 1.9 WNW | 285 77.6 73.3
5/10/26 - 0310 76.2 13.2 9 1.1 NNW | 343 1.5 NW | 323 77.6 73.3
5/10/26 - 0300 76.9 13.2 9 1.7 N | 3 2.6 N | 0 77.6 73.3
5/10/26 - 0250 77.4 13.0 9 1.7 NNE | 18 2.4 NNE | 27 77.6 73.3
5/10/26 - 0240 77.5 13.0 9 2.8 NNE | 30 3.6 NNE | 27 77.6 73.3
5/10/26 - 0230 76.6 11.3 8 4.2 NE | 38 5.0 NE | 38 77.2 73.3
5/10/26 - 0220 75.9 9.9 8 4.2 NE | 46 4.8 NE | 46 76.2 73.3
5/10/26 - 0210 75.2 8.5 7 4.9 NNE | 32 5.8 NNE | 32 75.7 73.3
5/10/26 - 0200 75.0 7.0 7 4.7 NNE | 27 5.4 NNE | 31 75.1 73.3
5/10/26 - 0150 74.6 5.8 7 5.7 NNE | 18 6.7 N | 8 74.8 73.3
5/10/26 - 0140 74.4 4.3 6 6.0 NNE | 17 7.5 NNE | 13 74.6 73.3
5/10/26 - 0130 73.6 3.8 6 5.8 NNE | 17 7.1 N | 4 74.3 73.3
5/10/26 - 0120 73.5 4.1 6 6.6 N | 10 8.7 NNE | 18 73.9 73.3
5/10/26 - 0110 73.6 3.4 6 6.6 N | 10 9.1 N | 0 73.9 73.3
5/10/26 - 0100 73.8 3.1 6 6.2 N | 4 7.7 N | 3 84.3 70.5
5/10/26 - 0050 73.5 2.9 6 6.4 N | 0 8.5 NNW | 348 84.3 70.5
5/10/26 - 0040 73.4 2.8 6 6.6 N | 351 8.7 N | 352 84.3 70.5
5/10/26 - 0030 73.2 3.5 6 6.3 N | 357 8.6 N | 354 84.3 70.5
5/10/26 - 0020 73.2 3.4 6 6.6 N | 354 8.8 N | 0 84.3 70.5
5/10/26 - 0010 73.5 3.5 6 6.7 N | 351 10.7 NNW | 345 84.3 70.5
5/10/26 - 0000 73.6 3.7 6 7.3 NNW | 347 11.0 N | 352 84.3 70.5
5/9/26 - 2350 73.8 3.6 6 7.6 NNW | 342 10.7 NNW | 348 84.3 70.5
5/9/26 - 2340 73.5 4.6 7 7.8 NNW | 336 10.2 NNW | 343 84.3 70.5
5/9/26 - 2330 73.1 6.0 7 7.7 NNW | 345 12.6 NNW | 341 84.3 70.5
5/9/26 - 2320 72.9 6.7 7 7.4 NNW | 347 9.6 NNW | 342 84.3 70.5
5/9/26 - 2310 73.6 6.8 7 8.1 NNW | 342 11.5 NNW | 344 84.3 70.5
5/9/26 - 2300 73.8 7.4 7 8.6 NNW | 335 12.4 NW | 325 84.3 70.5
5/9/26 - 2250 73.8 8.4 8 10.1 NNW | 330 14.4 NNW | 331 84.3 70.5
5/9/26 - 2240 73.8 10.0 8 9.5 NNW | 336 13.9 NNW | 332 84.3 70.5
5/9/26 - 2230 74.2 11.3 9 10.5 NNW | 334 16.9 NNW | 336 84.3 70.5
5/9/26 - 2220 74.4 12.2 9 11.6 NNW | 335 16.4 NNW | 339 84.3 70.5
5/9/26 - 2210 74.7 13.5 10 12.3 NNW | 333 19.2 NNW | 339 84.3 70.5
5/9/26 - 2200 74.7 14.2 10 12.9 NNW | 335 18.0 NNW | 327 84.3 70.5
5/9/26 - 2150 74.4 15.7 11 13.8 NNW | 334 20.3 NNW | 339 84.3 70.5
5/9/26 - 2140 74.3 16.7 11 13.0 NNW | 334 18.4 NNW | 337 84.3 70.5
5/9/26 - 2130 73.8 19.3 13 14.6 NNW | 336 20.1 NNW | 329 84.3 70.5
5/9/26 - 2120 73.7 22.0 14 14.1 NNW | 333 22.4 NNW | 328 84.3 70.5
5/9/26 - 2110 73.5 23.6 15 13.6 NNW | 334 21.6 NNW | 341 84.3 70.5
5/9/26 - 2100 73.2 26.3 17 14.0 NNW | 334 20.8 NNW | 341 84.3 70.5
5/9/26 - 2050 72.5 30.6 21 13.8 NNW | 329 20.2 WNW | 300 84.3 70.5
5/9/26 - 2040 72.1 34.5 25 14.0 NW | 326 20.2 NNW | 332 84.3 70.5
5/9/26 - 2030 72.3 35.0 26 14.9 NNW | 330 23.2 NNW | 338 84.3 70.5
5/9/26 - 2020 71.7 38.0 29 15.5 NNW | 334 22.2 NNW | 335 84.3 70.5
5/9/26 - 2010 71.7 40.6 32 16.0 NNW | 332 22.5 NNW | 339 84.3 70.5
5/9/26 - 2000 71.9 41.6 34 17.2 NNW | 331 23.7 NW | 320 84.3 70.5
5/9/26 - 1950 72.2 42.4 34 15.8 NNW | 328 22.9 NNW | 338 84.3 70.5
5/9/26 - 1940 73.0 41.9 33 14.8 NNW | 327 21.5 NW | 325 84.3 70.5
5/9/26 - 1930 73.8 42.0 32 15.1 NNW | 331 23.8 NW | 324 84.3 70.5
5/9/26 - 1920 74.7 42.0 31 15.5 NNW | 335 22.1 NW | 320 84.3 70.5
5/9/26 - 1910 75.5 41.8 30 15.3 NNW | 340 22.4 NNW | 348 84.3 70.5
5/9/26 - 1900 76.4 41.1 28 13.8 NNW | 335 20.4 NNW | 342 84.3 70.5
5/9/26 - 1850 77.2 40.2 26 13.6 NNW | 346 18.9 NNW | 342 84.3 70.5
5/9/26 - 1840 77.8 39.3 25 13.4 NNW | 345 21.6 NNW | 342 84.3 70.5
5/9/26 - 1830 78.8 39.6 25 12.2 N | 349 20.6 N | 352 84.3 70.5
5/9/26 - 1820 79.4 39.6 24 12.1 NNW | 343 19.4 NNW | 340 84.3 70.5
5/9/26 - 1810 79.9 38.8 23 12.0 N | 353 17.3 N | 350 84.3 70.5
5/9/26 - 1800 80.7 37.4 21 12.5 N | 355 18.3 N | 352 84.3 70.5
5/9/26 - 1750 81.5 36.5 20 11.6 N | 359 19.3 N | 6 84.3 70.5
5/9/26 - 1740 81.8 36.5 20 11.2 N | 354 17.9 N | 350 84.3 70.5
5/9/26 - 1730 81.8 36.6 20 11.4 N | 357 17.8 N | 11 84.3 70.5
5/9/26 - 1720 82.0 36.4 19 11.4 N | 5 18.4 N | 351 84.3 70.5
5/9/26 - 1710 82.7 36.3 19 9.2 NNE | 18 16.9 NNE | 29 84.3 70.5
5/9/26 - 1700 83.1 35.6 18 8.2 N | 351 15.9 N | 354 84.3 70.5
5/9/26 - 1650 82.7 28.0 14 3.9 E | 98 11.0 SE | 136 84.3 70.5
5/9/26 - 1640 83.4 28.8 14 4.5 NE | 53 11.2 NE | 47 84.3 70.5
5/9/26 - 1630 83.7 36.4 19 9.8 NW | 310 28.9 SE | 144 84.3 70.5
5/9/26 - 1620 82.9 29.7 14 2.9 ENE | 71 8.2 ENE | 70 83.7 70.5
Max 86.6 42.4 34 17.2 - 28.9 - 87.6 73.3
Avg 78.8 21.8 13 8.2 - 13.0 - - -
Min 71.7 2.8 6 0.6 - 1.5 - 73.9 70.5